Weather reports worldwide

Advertisment
Desenzano, Italy (16089): temperature & dewpoint: 12.08.2019 03:00:00 - 18.08.2019 03:00:00 (CEST)Desenzano, Italy (16089): wind speed: 12.08.2019 03:00:00 - 18.08.2019 03:00:00 (CEST)Desenzano, Italy (16089): wind direction: 12.08.2019 03:00:00 - 18.08.2019 03:00:00 (CEST)Desenzano, Italy (16089): reduced air pressure: 12.08.2019 03:00:00 - 18.08.2019 03:00:00 (CEST)
Date & Time tt [°C] td [°C] ff [km/h] ff [kn] dd ppp [hPa]
18.08.2019 03:00:00 - - - - - -
18.08.2019 02:00:00 24,6 20,2 0 0 N 1015,7
18.08.2019 01:00:00 25,5 21,5 4 2 N 1015,6
18.08.2019 00:00:00 25,9 21,3 5 3 NNW 1015,3
17.08.2019 23:00:00 25,5 20,9 2 1 ENE 1015,3
17.08.2019 22:00:00 25,6 21,2 0 0 N 1015,3
17.08.2019 21:00:00 26,0 20,5 0 0 N 1014,9
17.08.2019 20:00:00 26,8 21,3 2 1 N 1014,8
17.08.2019 19:00:00 27,2 21,9 8 4 N 1014,7
17.08.2019 18:00:00 28,1 19,6 4 2 WNW 1014,8
17.08.2019 17:00:00 27,7 20,5 5 3 NE 1014,9
17.08.2019 16:00:00 27,9 19,6 8 4 NE 1015,3
17.08.2019 15:00:00 26,9 18,1 8 4 NNE 1015,7
17.08.2019 14:00:00 26,8 18,8 9 5 NNE 1016,1
17.08.2019 13:00:00 26,0 19,6 5 3 NNW 1016,9
17.08.2019 12:00:00 26,2 19,5 5 3 NW 1017,0
17.08.2019 11:00:00 24,9 20,1 5 3 NNW 1017,1
17.08.2019 10:00:00 24,3 19,9 8 4 N 1017,4
17.08.2019 09:00:00 24,2 21,1 9 5 NW 1017,2
17.08.2019 08:00:00 23,9 20,6 8 4 NNW 1016,7
17.08.2019 07:00:00 23,8 20,1 9 5 NW 1016,8
17.08.2019 06:00:00 23,9 20,4 11 6 NW 1016,5
17.08.2019 05:00:00 24,0 20,3 11 6 NW 1016,4
17.08.2019 04:00:00 24,0 20,9 11 6 NW 1016,5
17.08.2019 03:00:00 22,7 19,0 0 0 N 1016,5
17.08.2019 02:00:00 23,7 18,7 0 0 N 1017,0
17.08.2019 01:00:00 24,0 18,3 4 2 E 1017,0
17.08.2019 00:00:00 24,3 19,9 0 0 N 1016,9
16.08.2019 23:00:00 24,4 20,7 4 2 NNW 1016,6
16.08.2019 22:00:00 24,8 18,9 0 0 N 1016,3
16.08.2019 21:00:00 25,6 17,2 0 0 N 1015,4
16.08.2019 20:00:00 26,9 17,0 4 2 E 1015,0
16.08.2019 19:00:00 27,2 16,7 2 1 E 1015,0
16.08.2019 18:00:00 27,5 16,7 8 4 ENE 1015,2
16.08.2019 17:00:00 27,4 18,1 9 5 ENE 1015,2
16.08.2019 16:00:00 27,0 18,2 9 5 NNE 1015,4
16.08.2019 15:00:00 26,3 18,4 9 5 N 1016,0
16.08.2019 14:00:00 26,3 18,1 5 3 N 1016,2
16.08.2019 13:00:00 25,6 17,5 2 1 N 1016,8
16.08.2019 12:00:00 25,0 18,4 0 0 N 1017,0
16.08.2019 11:00:00 24,4 18,7 13 7 NNW 1017,4
16.08.2019 10:00:00 24,4 19,4 4 2 N 1017,3
16.08.2019 09:00:00 21,9 20,1 2 1 NNW 1016,9
16.08.2019 08:00:00 19,9 19,2 4 2 S 1017,2
16.08.2019 07:00:00 19,8 18,4 5 3 S 1016,7
16.08.2019 06:00:00 22,9 17,9 0 0 N 1016,5
16.08.2019 05:00:00 23,1 16,1 5 3 E 1016,0
16.08.2019 04:00:00 23,3 16,3 5 3 E 1015,7
16.08.2019 03:00:00 24,8 18,7 9 5 E 1015,2
16.08.2019 02:00:00 24,9 20,7 13 7 ENE 1014,5
16.08.2019 01:00:00 24,3 19,9 0 0 N 1014,2
16.08.2019 00:00:00 24,1 19,7 4 2 N 1013,7
15.08.2019 23:00:00 24,5 18,4 2 1 SSE 1013,3
15.08.2019 22:00:00 25,2 17,6 2 1 S 1013,0
15.08.2019 21:00:00 26,0 17,3 2 1 S 1012,6
15.08.2019 20:00:00 27,2 17,6 4 2 SW 1012,6
15.08.2019 19:00:00 27,7 16,6 4 2 SSW 1012,1
15.08.2019 18:00:00 27,8 17,6 4 2 SE 1012,3
15.08.2019 17:00:00 27,0 19,3 5 3 NNE 1012,9
15.08.2019 16:00:00 26,9 18,9 8 4 NNE 1013,6
15.08.2019 15:00:00 27,2 19,2 5 3 E 1014,3
15.08.2019 14:00:00 26,0 18,3 8 4 N 1014,8
15.08.2019 13:00:00 25,9 19,0 5 3 NNW 1015,4
15.08.2019 12:00:00 25,5 18,1 9 5 N 1015,8
15.08.2019 11:00:00 25,4 17,0 8 4 NNE 1016,4
15.08.2019 10:00:00 25,4 17,3 9 5 ENE 1016,5
15.08.2019 09:00:00 24,4 17,6 0 0 N 1016,5
15.08.2019 08:00:00 22,9 17,5 0 0 N 1016,6
15.08.2019 07:00:00 21,5 16,4 0 0 N 1016,2
15.08.2019 06:00:00 22,1 17,2 0 0 N 1015,9
15.08.2019 05:00:00 23,1 17,0 0 0 N 1016,3
15.08.2019 04:00:00 23,6 18,0 0 0 N 1016,4
15.08.2019 03:00:00 23,5 18,1 0 0 N 1016,5
15.08.2019 02:00:00 23,5 18,7 0 0 N 1016,6
15.08.2019 01:00:00 24,0 18,6 0 0 N 1016,7
15.08.2019 00:00:00 23,8 18,2 0 0 N 1016,6
14.08.2019 23:00:00 24,1 18,0 0 0 N 1015,9
14.08.2019 22:00:00 24,7 17,9 0 0 N 1015,4
14.08.2019 21:00:00 25,7 17,5 0 0 N 1014,5
14.08.2019 20:00:00 26,8 18,1 0 0 N 1013,8
14.08.2019 19:00:00 27,3 18,0 2 1 E 1013,4
14.08.2019 18:00:00 27,1 17,2 0 0 N 1013,4
14.08.2019 17:00:00 27,2 17,0 0 0 N 1013,7
14.08.2019 16:00:00 27,5 17,9 2 1 ESE 1014,0
14.08.2019 15:00:00 27,1 18,3 2 1 SW 1014,3
14.08.2019 14:00:00 26,7 16,8 0 0 N 1014,3
14.08.2019 13:00:00 26,9 16,2 8 4 NW 1014,3
14.08.2019 12:00:00 26,4 16,0 5 3 NW 1014,3
14.08.2019 11:00:00 25,9 14,6 0 0 N 1014,2
14.08.2019 10:00:00 26,0 18,1 8 4 E 1013,7
14.08.2019 09:00:00 25,1 19,6 8 4 E 1013,4
14.08.2019 08:00:00 24,7 19,2 0 0 N 1012,7
14.08.2019 07:00:00 24,9 15,4 26 14 NNE 1011,8
14.08.2019 06:00:00 25,2 17,6 18 10 N 1010,9
14.08.2019 05:00:00 25,2 17,3 13 7 NE 1010,6
14.08.2019 04:00:00 25,6 19,0 22 12 N 1010,5
14.08.2019 03:00:00 24,9 21,6 0 0 N 1010,2
14.08.2019 02:00:00 25,3 21,5 2 1 ESE 1010,0
14.08.2019 01:00:00 25,8 21,2 15 8 NNE 1009,7
14.08.2019 00:00:00 26,0 23,2 0 0 N 1009,3
13.08.2019 23:00:00 26,0 22,4 5 3 SW 1009,2
13.08.2019 22:00:00 26,3 22,7 4 2 SSW 1009,3
13.08.2019 21:00:00 26,6 22,0 4 2 SSW 1008,7
13.08.2019 20:00:00 27,4 21,8 2 1 SSW 1008,7
13.08.2019 19:00:00 28,1 21,3 4 2 SW 1008,4
13.08.2019 18:00:00 28,4 21,4 4 2 NNW 1008,9
13.08.2019 17:00:00 27,9 23,2 2 1 NNE 1009,3
13.08.2019 16:00:00 27,7 24,1 8 4 NNE 1009,5
13.08.2019 15:00:00 27,5 22,8 5 3 N 1009,9
13.08.2019 14:00:00 27,6 21,8 5 3 N 1010,4
13.08.2019 13:00:00 27,2 20,5 4 2 N 1011,1
13.08.2019 12:00:00 26,4 20,2 11 6 NNW 1011,7
13.08.2019 11:00:00 25,8 21,4 15 8 NNW 1011,8
13.08.2019 10:00:00 25,6 21,6 15 8 NNW 1012,0
13.08.2019 09:00:00 25,4 22,0 11 6 NW 1011,8
13.08.2019 08:00:00 24,9 21,9 15 8 NNW 1011,7
13.08.2019 07:00:00 24,8 22,6 28 15 NNW 1011,1
13.08.2019 06:00:00 24,9 23,1 18 10 NW 1011,0
13.08.2019 05:00:00 25,0 23,4 18 10 NW 1011,0
13.08.2019 04:00:00 24,9 22,7 21 11 NW 1011,1
13.08.2019 03:00:00 25,2 23,8 28 15 NNW 1011,2
13.08.2019 02:00:00 25,2 23,2 15 8 NW 1011,4
13.08.2019 01:00:00 25,2 23,2 15 8 NW 1011,8
13.08.2019 00:00:00 25,1 23,5 18 10 NW 1011,7
12.08.2019 23:00:00 24,9 23,5 13 7 NW 1011,8
12.08.2019 22:00:00 25,3 23,5 16 9 N 1011,9
12.08.2019 21:00:00 24,2 23,8 16 9 NW 1011,1
12.08.2019 20:00:00 23,3 22,2 13 7 W 1013,0
12.08.2019 19:00:00 27,1 25,1 9 5 N 1010,1
12.08.2019 18:00:00 27,0 25,5 5 3 N 1010,2
12.08.2019 17:00:00 26,8 25,8 11 6 NNE 1010,2
12.08.2019 16:00:00 27,0 25,5 13 7 N 1011,4
12.08.2019 15:00:00 27,0 25,0 13 7 N 1011,5
12.08.2019 14:00:00 27,0 25,8 13 7 NW 1011,4
12.08.2019 13:00:00 27,0 25,4 11 6 ENE 1012,4
12.08.2019 12:00:00 27,0 25,9 11 6 NW 1013,3
12.08.2019 11:00:00 26,7 24,9 11 6 N 1012,4
12.08.2019 10:00:00 26,8 24,6 11 6 N 1012,1
12.08.2019 09:00:00 26,7 25,1 15 8 N 1012,6
12.08.2019 08:00:00 26,5 24,5 2 1 NNW 1012,2
12.08.2019 07:00:00 26,4 26,1 5 3 NW 1012,2
12.08.2019 06:00:00 26,1 25,5 4 2 NW 1011,9
12.08.2019 05:00:00 26,3 25,6 2 1 NNW 1012,0
12.08.2019 04:00:00 26,9 25,8 5 3 NW 1012,2
12.08.2019 03:00:00 26,9 26,6 8 4 NNW 1012,2

tt = temperature
td = dewpoint
ff = wind speed
dd = wind direction
ppp = reduced air pressure

Next stations